createdAt,value
2018-05-12T00:02:41.289Z,16.10
2018-05-12T00:06:43.937Z,16.10
2018-05-12T00:10:46.548Z,16.10
2018-05-12T00:14:49.967Z,16.10
2018-05-12T00:18:52.680Z,16.00
2018-05-12T00:22:55.386Z,16.10
2018-05-12T00:26:58.088Z,16.10
2018-05-12T00:31:00.761Z,16.10
2018-05-12T00:35:03.445Z,16.00
2018-05-12T00:39:06.097Z,16.00
2018-05-12T00:43:09.504Z,15.90
2018-05-12T00:47:12.994Z,15.90
2018-05-12T00:51:16.378Z,15.80
2018-05-12T00:55:19.085Z,15.80
2018-05-12T00:59:21.758Z,15.80
2018-05-12T01:03:24.421Z,15.70
2018-05-12T01:07:27.072Z,15.70
2018-05-12T01:11:30.488Z,15.70
2018-05-12T01:15:33.141Z,15.60
2018-05-12T01:19:35.785Z,15.60
2018-05-12T01:23:38.433Z,15.60
2018-05-12T01:27:41.840Z,15.50
2018-05-12T01:31:45.211Z,15.50
2018-05-12T01:35:47.911Z,15.50
2018-05-12T01:39:50.555Z,15.50
2018-05-12T01:43:53.217Z,15.50
2018-05-12T01:47:56.619Z,15.40
2018-05-12T01:51:59.988Z,15.50
2018-05-12T01:56:02.672Z,15.40
2018-05-12T02:00:05.312Z,15.40
2018-05-12T02:04:07.992Z,15.40
2018-05-12T02:08:11.403Z,15.30
2018-05-12T02:12:14.782Z,15.30
2018-05-12T02:16:17.483Z,15.20
2018-05-12T02:20:20.956Z,15.20
2018-05-12T02:24:23.602Z,15.20
2018-05-12T02:28:26.239Z,15.20
2018-05-12T02:32:28.859Z,15.20
2018-05-12T02:36:32.264Z,15.10
2018-05-12T02:40:35.677Z,15.00
2018-05-12T02:44:39.088Z,15.00
2018-05-12T02:48:42.602Z,15.00
2018-05-12T02:52:45.132Z,14.90
2018-05-12T02:56:47.779Z,15.00
2018-05-12T03:00:50.419Z,14.90
2018-05-12T03:04:53.076Z,14.80
2018-05-12T03:08:55.779Z,14.80
2018-05-12T03:12:58.390Z,14.80
2018-05-12T03:17:01.884Z,14.80
2018-05-12T03:21:04.524Z,14.70
2018-05-12T03:25:07.193Z,14.80
2018-05-12T03:29:09.808Z,14.80
2018-05-12T03:33:12.452Z,14.80
2018-05-12T03:37:15.101Z,14.70
2018-05-12T03:41:17.874Z,14.70
2018-05-12T03:45:20.512Z,14.70
2018-05-12T03:49:23.128Z,14.70
2018-05-12T03:53:26.536Z,14.60
2018-05-12T03:57:29.943Z,14.60
2018-05-12T04:01:33.354Z,14.60
2018-05-12T04:05:48.565Z,14.60
2018-05-12T04:10:03.013Z,14.60
2018-05-12T04:14:05.647Z,14.60
2018-05-12T04:18:08.293Z,14.60
2018-05-12T04:22:10.900Z,14.60
2018-05-12T04:26:13.605Z,14.50
2018-05-12T04:30:16.316Z,14.50
2018-05-12T04:34:18.964Z,14.50
2018-05-12T04:38:21.661Z,14.50
2018-05-12T04:42:24.271Z,14.50
2018-05-12T04:46:26.928Z,14.50
2018-05-12T04:50:29.580Z,14.50
2018-05-12T04:54:32.984Z,14.60
2018-05-12T04:58:35.627Z,14.50
2018-05-12T05:02:38.242Z,14.60
2018-05-12T05:06:40.888Z,14.60
2018-05-12T05:10:43.533Z,14.70
2018-05-12T05:14:46.181Z,14.80
2018-05-12T05:18:48.841Z,14.80
2018-05-12T05:22:51.449Z,14.90
2018-05-12T05:26:54.083Z,14.90
2018-05-12T05:30:56.724Z,15.00
2018-05-12T05:34:59.368Z,15.00
2018-05-12T05:39:02.750Z,15.20
2018-05-12T05:43:05.399Z,15.10
2018-05-12T05:47:08.073Z,15.30
2018-05-12T05:51:10.716Z,15.30
2018-05-12T05:55:13.361Z,15.40
2018-05-12T05:59:16.084Z,15.40
2018-05-12T06:03:19.528Z,15.60
2018-05-12T06:07:22.989Z,15.70
2018-05-12T06:11:25.642Z,15.60
2018-05-12T06:15:28.281Z,15.80
2018-05-12T06:19:30.941Z,15.80
2018-05-12T06:23:33.579Z,15.90
2018-05-12T06:27:36.649Z,16.00
2018-05-12T06:31:39.316Z,16.10
2018-05-12T06:35:42.020Z,16.20
2018-05-12T06:39:44.632Z,16.60
2018-05-12T06:43:47.271Z,17.30
2018-05-12T06:47:49.967Z,18.40
2018-05-12T06:51:52.648Z,19.70
2018-05-12T06:55:55.300Z,20.80
2018-05-12T06:59:57.903Z,21.80
2018-05-12T07:04:01.309Z,23.40
2018-05-12T07:08:04.715Z,24.10
2018-05-12T07:12:08.113Z,24.60
2018-05-12T07:16:11.521Z,24.90
2018-05-12T07:20:14.879Z,25.00
2018-05-12T07:24:17.552Z,24.90
2018-05-12T07:28:20.244Z,25.10
2018-05-12T07:32:22.879Z,24.90
2018-05-12T07:36:25.571Z,25.00
2018-05-12T07:40:28.180Z,25.20
2018-05-12T07:44:31.596Z,25.00
2018-05-12T07:48:34.267Z,25.00
2018-05-12T07:52:37.669Z,24.50
2018-05-12T07:56:41.068Z,24.00
2018-05-12T08:00:43.669Z,23.90
2018-05-12T08:04:47.077Z,22.80
2018-05-12T08:08:50.477Z,22.40
2018-05-12T08:12:53.904Z,22.00
2018-05-12T08:16:57.327Z,21.80
2018-05-12T08:21:00.015Z,21.70
2018-05-12T08:25:02.659Z,21.70
2018-05-12T08:29:06.065Z,21.20
2018-05-12T08:33:08.695Z,21.20
2018-05-12T08:37:11.329Z,21.00
2018-05-12T08:41:13.928Z,20.90
2018-05-12T08:45:16.567Z,20.80
2018-05-12T08:49:19.204Z,20.80
2018-05-12T08:53:21.838Z,20.70
2018-05-12T08:57:24.471Z,20.70
2018-05-12T09:01:27.075Z,20.60
2018-05-12T09:05:30.472Z,20.70
2018-05-12T09:09:33.112Z,20.70
2018-05-12T09:13:35.796Z,20.80
2018-05-12T09:17:38.441Z,20.90
2018-05-12T09:21:41.817Z,21.10
2018-05-12T09:25:44.518Z,21.10
2018-05-12T09:29:47.253Z,21.10
2018-05-12T09:33:49.891Z,21.20
2018-05-12T09:37:52.531Z,21.20
2018-05-12T09:41:55.148Z,21.20
2018-05-12T09:45:57.813Z,21.30
2018-05-12T09:50:00.498Z,21.40
2018-05-12T09:54:03.136Z,21.40
2018-05-12T09:58:05.780Z,21.50
2018-05-12T10:02:08.383Z,21.60
2018-05-12T10:06:11.049Z,21.70
2018-05-12T10:10:13.702Z,21.80
2018-05-12T10:14:16.345Z,22.00
2018-05-12T10:18:19.010Z,22.10
2018-05-12T10:22:21.607Z,22.20
2018-05-12T10:26:24.282Z,22.30
2018-05-12T10:30:26.933Z,22.30
2018-05-12T10:34:29.579Z,22.30
2018-05-12T10:38:32.216Z,22.30
2018-05-12T10:42:34.821Z,22.30
2018-05-12T10:46:38.221Z,22.30
2018-05-12T10:50:40.852Z,22.30
2018-05-12T10:54:43.483Z,22.30
2018-05-12T10:58:46.116Z,22.30
2018-05-12T11:02:48.716Z,22.20
2018-05-12T11:06:51.348Z,22.20
2018-05-12T11:10:54.019Z,22.20
2018-05-12T11:14:56.665Z,22.30
2018-05-12T11:18:59.305Z,22.40
2018-05-12T11:23:01.912Z,22.40
2018-05-12T11:27:04.551Z,22.40
2018-05-12T11:31:07.201Z,22.40
2018-05-12T11:35:10.624Z,22.50
2018-05-12T11:39:13.267Z,22.40
2018-05-12T11:43:15.876Z,22.50
2018-05-12T11:47:19.289Z,22.70
2018-05-12T11:51:22.745Z,22.70
2018-05-12T11:55:25.371Z,22.70
2018-05-12T11:59:28.013Z,22.80
2018-05-12T12:03:30.611Z,22.90
2018-05-12T12:07:33.369Z,23.00
2018-05-12T12:11:36.013Z,23.10
2018-05-12T12:15:38.659Z,23.10
2018-05-12T12:19:41.919Z,23.30
2018-05-12T12:23:44.524Z,23.40
2018-05-12T12:27:47.186Z,23.50
2018-05-12T12:31:49.868Z,23.60
2018-05-12T12:35:52.503Z,23.70
2018-05-12T12:39:55.147Z,23.80
2018-05-12T12:43:57.756Z,23.90
2018-05-12T12:52:14.827Z,24.00
2018-05-12T12:56:17.463Z,24.10
2018-05-12T13:00:20.107Z,24.20
2018-05-12T13:04:22.711Z,24.20
2018-05-12T13:08:25.344Z,24.20
2018-05-12T13:12:28.046Z,24.20
2018-05-12T13:16:31.451Z,24.30
2018-05-12T13:20:34.857Z,24.40
2018-05-12T13:24:38.236Z,24.50
2018-05-12T13:28:40.873Z,24.40
2018-05-12T13:32:43.565Z,24.60
2018-05-12T13:36:46.202Z,24.70
2018-05-12T13:40:48.900Z,24.70
2018-05-12T13:44:51.509Z,24.80
2018-05-12T13:48:55.210Z,25.00
2018-05-12T13:52:57.975Z,24.90
2018-05-12T13:57:01.412Z,25.10
2018-05-12T14:01:04.040Z,25.00
2018-05-12T14:05:06.700Z,25.10
2018-05-12T14:09:10.100Z,25.20
2018-05-12T14:13:13.504Z,25.30
2018-05-12T14:17:16.914Z,25.20
2018-05-12T14:21:20.319Z,25.00
2018-05-12T14:25:23.688Z,25.00
2018-05-12T14:29:27.127Z,25.00
2018-05-12T14:33:30.592Z,25.00
2018-05-12T14:37:33.228Z,24.90
2018-05-12T14:41:36.628Z,25.20
2018-05-12T14:45:40.004Z,25.20
2018-05-12T14:49:42.648Z,25.10
2018-05-12T14:53:45.280Z,25.20
2018-05-12T14:57:47.930Z,25.20
2018-05-12T15:01:50.584Z,25.20
2018-05-12T15:05:53.952Z,25.30
2018-05-12T15:09:56.648Z,25.20
2018-05-12T15:13:59.290Z,25.30
2018-05-12T15:18:01.933Z,25.20
2018-05-12T15:22:04.579Z,25.20
2018-05-12T15:26:07.193Z,25.20
2018-05-12T15:30:09.837Z,25.10
2018-05-12T15:34:12.482Z,25.00
2018-05-12T15:38:15.131Z,24.90
2018-05-12T15:42:17.767Z,24.80
2018-05-12T15:46:20.381Z,24.80
2018-05-12T15:50:23.797Z,24.70
2018-05-12T15:54:27.261Z,24.60
2018-05-12T15:58:30.765Z,24.60
2018-05-12T16:02:33.399Z,24.60
2018-05-12T16:06:36.772Z,24.50
2018-05-12T16:10:39.413Z,24.50
2018-05-12T16:14:42.818Z,24.30
2018-05-12T16:18:45.461Z,24.30
2018-05-12T16:22:48.104Z,24.30
2018-05-12T16:26:50.710Z,24.10
2018-05-12T16:30:53.351Z,24.10
2018-05-12T16:34:56.764Z,23.90
2018-05-12T16:38:59.407Z,23.90
2018-05-12T16:43:02.050Z,23.90
2018-05-12T16:47:04.655Z,23.80
2018-05-12T16:51:07.356Z,23.80
2018-05-12T16:55:10.015Z,23.80
2018-05-12T16:59:12.729Z,23.70
2018-05-12T17:03:16.095Z,23.60
2018-05-12T17:07:19.529Z,23.50
2018-05-12T17:11:22.217Z,23.50
2018-05-12T17:15:24.860Z,23.50
2018-05-12T17:19:27.508Z,23.40
2018-05-12T17:23:30.184Z,23.30
2018-05-12T17:27:32.827Z,23.30
2018-05-12T17:31:35.465Z,23.10
2018-05-12T17:35:38.124Z,23.10
2018-05-12T17:39:41.595Z,22.90
2018-05-12T17:43:44.240Z,22.80
2018-05-12T17:47:46.950Z,22.80
2018-05-12T17:51:49.592Z,22.70
2018-05-12T17:55:53.000Z,22.50
2018-05-12T17:59:56.460Z,22.40
2018-05-12T18:03:59.172Z,22.40
2018-05-12T18:08:01.736Z,22.40
2018-05-12T18:12:04.377Z,22.30
2018-05-12T18:16:07.021Z,22.30
2018-05-12T18:20:09.666Z,22.20
2018-05-12T18:24:12.317Z,22.10
2018-05-12T18:28:14.934Z,22.00
2018-05-12T18:32:17.568Z,21.90
2018-05-12T18:36:20.209Z,21.80
2018-05-12T18:40:22.848Z,21.80
2018-05-12T18:44:25.496Z,21.70
2018-05-12T18:48:28.110Z,21.60
2018-05-12T18:52:30.743Z,21.50
2018-05-12T18:56:34.224Z,21.30
2018-05-12T19:00:37.592Z,21.20
2018-05-12T19:04:40.244Z,21.10
2018-05-12T19:08:43.620Z,21.00
2018-05-12T19:12:46.264Z,20.90
2018-05-12T19:16:48.916Z,20.80
2018-05-12T19:20:52.326Z,20.60
2018-05-12T19:24:55.737Z,20.50
2018-05-12T19:28:59.113Z,20.40
2018-05-12T19:33:01.812Z,20.40
2018-05-12T19:37:04.460Z,20.30
2018-05-12T19:41:07.100Z,20.20
2018-05-12T19:45:09.755Z,20.10
2018-05-12T19:49:12.417Z,20.00
2018-05-12T19:53:15.064Z,20.00
2018-05-12T19:57:17.708Z,19.80
2018-05-12T20:01:20.356Z,19.70
2018-05-12T20:05:23.768Z,19.50
2018-05-12T20:09:27.141Z,19.40
2018-05-12T20:13:29.792Z,19.40
2018-05-12T20:17:32.437Z,19.30
2018-05-12T20:21:35.849Z,19.10
2018-05-12T20:25:39.264Z,19.00
2018-05-12T20:29:42.645Z,18.90
2018-05-12T20:33:45.347Z,18.80
2018-05-12T20:37:48.756Z,18.70
2018-05-12T20:41:52.164Z,18.70
2018-05-12T20:45:55.635Z,18.60
2018-05-12T20:49:58.248Z,18.50
2018-05-12T20:54:00.945Z,18.60
2018-05-12T20:58:04.416Z,18.50
2018-05-12T21:02:07.059Z,18.40
2018-05-12T21:06:09.712Z,18.40
2018-05-12T21:10:12.320Z,18.40
2018-05-12T21:14:15.776Z,18.30
2018-05-12T21:18:18.392Z,18.20
2018-05-12T21:22:21.117Z,18.20
2018-05-12T21:26:23.736Z,18.20
2018-05-12T21:30:26.353Z,18.20
2018-05-12T21:34:29.001Z,18.10
2018-05-12T21:38:31.649Z,18.10
2018-05-12T21:42:35.056Z,18.00
2018-05-12T21:46:38.429Z,18.00
2018-05-12T21:50:41.067Z,17.90
2018-05-12T21:54:44.476Z,17.90
2018-05-12T21:58:47.120Z,17.80
2018-05-12T22:02:49.780Z,17.90
2018-05-12T22:06:52.424Z,17.80
2018-05-12T22:10:55.834Z,17.80
2018-05-12T22:14:59.241Z,17.80
2018-05-12T22:19:02.653Z,17.70
2018-05-12T22:23:06.026Z,17.70
2018-05-12T22:27:08.664Z,17.60
2018-05-12T22:31:11.344Z,17.70
2018-05-12T22:35:13.995Z,17.60
2018-05-12T22:39:16.640Z,17.60
2018-05-12T22:43:19.247Z,17.60
2018-05-12T22:47:21.904Z,17.50
2018-05-12T22:51:25.335Z,17.40
2018-05-12T22:55:27.976Z,17.40
2018-05-12T22:59:31.402Z,17.40
2018-05-12T23:03:34.016Z,17.30
2018-05-12T23:07:36.659Z,17.40
2018-05-12T23:11:40.120Z,17.30
2018-05-12T23:15:42.765Z,17.30
2018-05-12T23:19:46.140Z,17.20
2018-05-12T23:23:48.781Z,17.20
2018-05-12T23:27:51.416Z,17.20
2018-05-12T23:31:54.056Z,17.10
2018-05-12T23:35:56.694Z,17.10
2018-05-12T23:39:59.295Z,17.10
2018-05-12T23:44:02.757Z,17.00
2018-05-12T23:48:05.400Z,16.90
2018-05-12T23:52:08.816Z,16.90
2018-05-12T23:56:11.480Z,16.80
